createdAt,value
2017-03-21T00:01:16.090Z,1000.245
2017-03-21T00:04:21.480Z,1000.244
2017-03-21T00:07:26.052Z,1000.188
2017-03-21T00:13:34.370Z,1000.391
2017-03-21T00:16:38.318Z,1000.376
2017-03-21T00:19:43.559Z,1000.502
2017-03-21T00:22:49.187Z,1000.513
2017-03-21T00:28:58.542Z,1000.531
2017-03-21T00:32:01.302Z,1000.512
2017-03-21T00:38:10.582Z,1000.581
2017-03-21T00:41:14.801Z,1000.639
2017-03-21T00:44:19.925Z,1000.628
2017-03-21T00:47:25.195Z,1000.718
2017-03-21T00:50:28.941Z,1000.829
2017-03-21T00:53:33.215Z,1000.895
2017-03-21T00:56:38.207Z,1000.969
2017-03-21T00:59:42.605Z,1000.952
2017-03-21T01:02:46.759Z,1000.923
2017-03-21T01:05:52.016Z,1000.982
2017-03-21T01:12:01.361Z,1001.065
2017-03-21T01:18:10.857Z,1001.157
2017-03-21T01:24:19.965Z,1001.277
2017-03-21T01:27:25.434Z,1001.243
2017-03-21T01:30:29.886Z,1001.174
2017-03-21T01:33:33.892Z,1001.237
2017-03-21T01:39:42.490Z,1001.314
2017-03-21T01:48:56.885Z,1001.522
2017-03-21T01:52:01.484Z,1001.589
2017-03-21T01:58:10.576Z,1001.549
2017-03-21T02:01:14.468Z,1001.661
2017-03-21T02:04:19.719Z,1001.588
2017-03-21T02:10:28.863Z,1001.694
2017-03-21T02:16:36.053Z,1001.800
2017-03-21T02:22:45.643Z,1001.715
2017-03-21T02:25:49.687Z,1001.715
2017-03-21T02:28:54.987Z,1001.771
2017-03-21T02:31:59.095Z,1001.813
2017-03-21T02:35:03.500Z,1001.860
2017-03-21T02:41:12.581Z,1001.931
2017-03-21T02:44:16.691Z,1001.916
2017-03-21T02:50:26.047Z,1002.040
2017-03-21T02:53:29.943Z,1002.056
2017-03-21T02:56:34.094Z,1002.144
2017-03-21T02:59:39.273Z,1002.163
2017-03-21T03:02:44.677Z,1002.130
2017-03-21T03:12:00.170Z,1002.387
2017-03-21T03:15:05.389Z,1002.437
2017-03-21T03:18:09.633Z,1002.402
2017-03-21T03:27:23.209Z,1002.134
2017-03-21T03:30:27.097Z,1002.192
2017-03-21T03:33:31.248Z,1002.176
2017-03-21T03:36:35.234Z,1002.278
2017-03-21T03:39:38.799Z,1002.341
2017-03-21T03:45:47.775Z,1002.475
2017-03-21T03:48:52.160Z,1002.498
2017-03-21T03:51:56.240Z,1002.472
2017-03-21T03:58:05.684Z,1002.487
2017-03-21T04:04:13.767Z,1002.469
2017-03-21T04:07:17.921Z,1002.536
2017-03-21T04:10:22.108Z,1002.533
2017-03-21T04:16:30.819Z,1002.608
2017-03-21T04:19:34.825Z,1002.617
2017-03-21T04:22:38.456Z,1002.659
2017-03-21T04:25:42.933Z,1002.651
2017-03-21T04:28:47.187Z,1002.713
2017-03-21T04:31:50.911Z,1002.784
2017-03-21T04:34:55.181Z,1002.818
2017-03-21T04:37:59.220Z,1002.929
2017-03-21T04:47:12.931Z,1002.984
2017-03-21T04:50:16.734Z,1002.994
2017-03-21T04:53:20.944Z,1003.085
2017-03-21T04:56:24.863Z,1003.091
2017-03-21T04:59:29.036Z,1003.107
2017-03-21T05:02:32.608Z,1003.106
2017-03-21T05:05:36.507Z,1003.128
2017-03-21T05:08:34.378Z,1003.158
2017-03-21T05:11:45.752Z,1003.130
2017-03-21T05:14:49.925Z,1003.144
2017-03-21T05:17:54.209Z,1003.181
2017-03-21T05:20:58.004Z,1003.199
2017-03-21T05:24:02.590Z,1003.282
2017-03-21T05:30:12.439Z,1003.354
2017-03-21T05:39:27.598Z,1003.371
2017-03-21T05:42:33.273Z,1003.425
2017-03-21T05:45:37.583Z,1003.499
2017-03-21T05:48:42.019Z,1003.520
2017-03-21T05:51:46.526Z,1003.529
2017-03-21T05:54:51.986Z,1003.561
2017-03-21T05:57:56.347Z,1003.603
2017-03-21T06:01:00.611Z,1003.731
2017-03-21T06:04:05.272Z,1003.769
2017-03-21T06:10:16.249Z,1003.785
2017-03-21T06:13:20.576Z,1003.770
2017-03-21T06:16:25.096Z,1003.800
2017-03-21T06:19:29.581Z,1003.858
2017-03-21T06:22:28.235Z,1003.918
2017-03-21T06:25:33.390Z,1003.914
2017-03-21T06:28:38.793Z,1003.911
2017-03-21T06:31:44.105Z,1003.997
2017-03-21T06:37:55.217Z,1003.961
2017-03-21T06:41:06.546Z,1004.060
2017-03-21T06:44:11.048Z,1004.047
2017-03-21T06:47:15.459Z,1004.151
2017-03-21T06:50:19.998Z,1004.176
2017-03-21T06:53:24.991Z,1004.201
2017-03-21T06:56:29.460Z,1004.228
2017-03-21T06:59:33.791Z,1004.248
2017-03-21T07:02:38.151Z,1004.309
2017-03-21T07:05:42.967Z,1004.268
2017-03-21T07:11:53.317Z,1004.324
2017-03-21T07:14:58.744Z,1004.356
2017-03-21T07:18:02.941Z,1004.336
2017-03-21T07:24:11.025Z,1004.347
2017-03-21T07:27:15.181Z,1004.355
2017-03-21T07:30:20.630Z,1004.446
2017-03-21T07:42:38.906Z,1004.562
2017-03-21T07:45:43.040Z,1004.611
2017-03-21T07:48:48.435Z,1004.646
2017-03-21T07:51:52.546Z,1004.679
2017-03-21T07:58:01.589Z,1004.626
2017-03-21T08:04:10.075Z,1004.629
2017-03-21T08:07:14.261Z,1004.632
2017-03-21T08:10:19.377Z,1004.635
2017-03-21T08:16:28.091Z,1004.581
2017-03-21T08:19:31.872Z,1004.547
2017-03-21T08:22:36.805Z,1004.604
2017-03-21T08:25:41.198Z,1004.551
2017-03-21T08:28:46.503Z,1004.593
2017-03-21T08:31:49.984Z,1004.638
2017-03-21T08:37:59.090Z,1004.643
2017-03-21T08:41:03.357Z,1004.615
2017-03-21T08:44:07.951Z,1004.612
2017-03-21T08:50:17.467Z,1004.646
2017-03-21T08:56:20.897Z,1004.623
2017-03-21T09:05:42.315Z,1004.567
2017-03-21T09:11:52.072Z,1004.556
2017-03-21T09:14:55.847Z,1004.553
2017-03-21T09:18:01.279Z,1004.545
2017-03-21T09:24:10.802Z,1004.573
2017-03-21T09:30:20.679Z,1004.551
2017-03-21T09:33:24.587Z,1004.540
2017-03-21T09:36:28.962Z,1004.528
2017-03-21T09:39:33.235Z,1004.541
2017-03-21T09:45:43.898Z,1004.541
2017-03-21T09:48:48.483Z,1004.510
2017-03-21T09:51:52.669Z,1004.506
2017-03-21T09:54:57.234Z,1004.475
2017-03-21T09:58:01.722Z,1004.424
2017-03-21T10:01:06.017Z,1004.375
2017-03-21T10:04:11.575Z,1004.347
2017-03-21T10:07:16.116Z,1004.318
2017-03-21T10:10:20.808Z,1004.328
2017-03-21T10:13:26.148Z,1004.300
2017-03-21T10:19:37.283Z,1004.254
2017-03-21T10:22:41.603Z,1004.215
2017-03-21T10:28:51.336Z,1004.285
2017-03-21T10:31:56.877Z,1004.215
2017-03-21T10:35:01.354Z,1004.170
2017-03-21T10:38:05.618Z,1004.158
2017-03-21T10:41:10.275Z,1004.187
2017-03-21T10:44:14.168Z,1004.087
2017-03-21T10:47:20.070Z,1004.054
2017-03-21T10:50:24.678Z,1004.105
2017-03-21T10:53:29.300Z,1004.136
2017-03-21T10:56:33.929Z,1004.193
2017-03-21T10:59:38.392Z,1004.067
2017-03-21T11:02:42.940Z,1004.114
2017-03-21T11:05:48.732Z,1004.102
2017-03-21T11:11:58.367Z,1004.249
2017-03-21T11:15:03.338Z,1004.235
2017-03-21T11:18:07.948Z,1004.250
2017-03-21T11:21:13.459Z,1004.255
2017-03-21T11:24:18.335Z,1004.061
2017-03-21T11:27:23.345Z,1004.055
2017-03-21T11:30:29.368Z,1004.285
2017-03-21T11:33:33.794Z,1004.312
2017-03-21T11:36:39.901Z,1004.132
2017-03-21T11:39:44.197Z,1004.136
2017-03-21T11:42:50.002Z,1004.180
2017-03-21T11:48:59.043Z,1004.301
2017-03-21T11:52:03.592Z,1004.276
2017-03-21T11:58:13.440Z,1004.269
2017-03-21T12:04:22.260Z,1004.163
2017-03-21T12:07:27.119Z,1004.052
2017-03-21T12:10:31.760Z,1003.977
2017-03-21T12:13:36.591Z,1003.808
2017-03-21T12:16:41.052Z,1003.741
2017-03-21T12:19:45.494Z,1003.765
2017-03-21T12:22:51.738Z,1003.781
2017-03-21T12:25:56.678Z,1003.776
2017-03-21T12:28:55.728Z,1003.832
2017-03-21T12:32:07.099Z,1003.841
2017-03-21T12:38:17.249Z,1004.047
2017-03-21T12:41:21.881Z,1003.985
2017-03-21T12:47:31.803Z,1004.055
2017-03-21T12:50:36.291Z,1004.081
2017-03-21T12:53:41.818Z,1004.101
2017-03-21T12:56:46.490Z,1004.236
2017-03-21T12:59:51.127Z,1004.256
2017-03-21T13:02:55.452Z,1004.304
2017-03-21T13:06:01.019Z,1004.387
2017-03-21T13:09:05.488Z,1004.382
2017-03-21T13:12:11.407Z,1004.372
2017-03-21T13:15:16.087Z,1004.263
2017-03-21T13:18:20.441Z,1004.225
2017-03-21T13:21:24.894Z,1004.114
2017-03-21T13:27:36.061Z,1004.086
2017-03-21T13:30:40.825Z,1004.104
2017-03-21T13:36:51.386Z,1004.111
2017-03-21T13:39:56.059Z,1004.126
2017-03-21T13:42:59.943Z,1004.196
2017-03-21T13:46:04.346Z,1004.501
2017-03-21T13:49:08.978Z,1004.725
2017-03-21T13:52:13.293Z,1004.741
2017-03-21T13:55:17.907Z,1004.860
2017-03-21T13:58:22.108Z,1004.866
2017-03-21T14:01:26.863Z,1004.853
2017-03-21T14:04:31.394Z,1004.960
2017-03-21T14:07:37.331Z,1005.249
2017-03-21T14:10:41.351Z,1005.377
2017-03-21T14:13:46.103Z,1005.665
2017-03-21T14:19:55.691Z,1005.797
2017-03-21T14:22:59.940Z,1005.850
2017-03-21T14:26:04.383Z,1005.861
2017-03-21T14:38:24.762Z,1006.058
2017-03-21T14:41:28.959Z,1006.036
2017-03-21T14:47:38.011Z,1005.993
2017-03-21T14:50:42.489Z,1006.047
2017-03-21T14:53:47.950Z,1006.064
2017-03-21T14:56:52.274Z,1006.043
2017-03-21T15:12:15.962Z,1006.051
2017-03-21T15:30:42.360Z,1006.135
2017-03-21T15:39:56.872Z,1006.262
2017-03-21T15:46:06.659Z,1006.408
2017-03-21T15:49:10.843Z,1006.409
2017-03-21T15:52:15.356Z,1006.426
2017-03-21T15:55:19.703Z,1006.419
2017-03-21T15:58:24.547Z,1006.408
2017-03-21T16:01:28.550Z,1006.437
2017-03-21T16:04:32.883Z,1006.455
2017-03-21T16:07:37.210Z,1006.555
2017-03-21T16:10:42.728Z,1006.689
2017-03-21T16:13:48.000Z,1006.776
2017-03-21T16:16:52.405Z,1006.836
2017-03-21T16:38:24.840Z,1007.180
2017-03-21T16:41:29.156Z,1007.322
2017-03-21T16:44:33.605Z,1007.417
2017-03-21T16:47:37.690Z,1007.457
2017-03-21T16:50:41.963Z,1007.488
2017-03-21T17:06:02.185Z,1007.826
2017-03-21T17:09:06.317Z,1007.886
2017-03-21T17:12:10.939Z,1007.977
2017-03-21T17:15:14.757Z,1007.969
2017-03-21T17:21:24.197Z,1008.045
2017-03-21T17:24:22.759Z,1008.050
2017-03-21T17:27:33.643Z,1008.153
2017-03-21T17:36:46.848Z,1008.324
2017-03-21T17:46:00.485Z,1008.527
2017-03-21T17:48:58.885Z,1008.596
2017-03-21T17:55:13.521Z,1008.775
2017-03-21T17:58:17.636Z,1008.854
2017-03-21T18:01:21.336Z,1008.923
2017-03-21T18:04:25.531Z,1008.983
2017-03-21T18:07:29.892Z,1008.979
2017-03-21T18:10:34.305Z,1009.148
2017-03-21T18:13:38.628Z,1009.208
2017-03-21T18:16:44.031Z,1009.290
2017-03-21T18:22:52.332Z,1009.453
2017-03-21T18:25:56.831Z,1009.513
2017-03-21T18:28:54.787Z,1009.573
2017-03-21T18:31:59.772Z,1009.598
2017-03-21T18:35:10.371Z,1009.685
2017-03-21T18:38:08.611Z,1009.788
2017-03-21T18:41:19.770Z,1009.826
2017-03-21T18:44:18.172Z,1009.881
2017-03-21T18:47:28.652Z,1009.938
2017-03-21T18:53:38.998Z,1010.115
2017-03-21T18:56:43.514Z,1010.106
2017-03-21T18:59:47.680Z,1010.173
2017-03-21T19:02:47.062Z,1010.199
2017-03-21T19:05:52.186Z,1010.317
2017-03-21T19:09:03.208Z,1010.365
2017-03-21T19:12:02.921Z,1010.372
2017-03-21T19:15:14.033Z,1010.364
2017-03-21T19:18:12.736Z,1010.411
2017-03-21T19:21:23.370Z,1010.399
2017-03-21T19:24:27.988Z,1010.476
2017-03-21T19:27:26.248Z,1010.476
2017-03-21T19:30:37.349Z,1010.541
2017-03-21T19:36:45.780Z,1010.662
2017-03-21T19:39:49.903Z,1010.690
2017-03-21T19:42:54.202Z,1010.728
2017-03-21T19:45:58.702Z,1010.734
2017-03-21T19:49:03.055Z,1010.759
2017-03-21T19:52:01.299Z,1010.811
2017-03-21T19:55:06.524Z,1010.867
2017-03-21T19:58:11.708Z,1010.921
2017-03-21T20:01:22.919Z,1010.969
2017-03-21T20:04:26.876Z,1010.971
2017-03-21T20:07:31.185Z,1010.983
2017-03-21T20:10:36.656Z,1011.039
2017-03-21T20:13:35.270Z,1011.047
2017-03-21T20:16:46.223Z,1011.071
2017-03-21T20:19:50.481Z,1011.145
2017-03-21T20:22:54.860Z,1011.140
2017-03-21T20:29:04.551Z,1011.269
2017-03-21T20:32:08.875Z,1011.307
2017-03-21T20:38:18.817Z,1011.346
2017-03-21T20:41:23.262Z,1011.399
2017-03-21T20:44:27.548Z,1011.433
2017-03-21T20:47:32.519Z,1011.504
2017-03-21T20:50:36.414Z,1011.564
2017-03-21T20:53:40.311Z,1011.624
2017-03-21T20:59:45.617Z,1011.769
2017-03-21T21:02:49.618Z,1011.746
2017-03-21T21:08:57.745Z,1011.872
2017-03-21T21:12:02.908Z,1011.910
2017-03-21T21:15:06.760Z,1011.948
2017-03-21T21:18:12.135Z,1012.016
2017-03-21T21:21:15.914Z,1012.036
2017-03-21T21:24:19.941Z,1012.053
2017-03-21T21:27:24.206Z,1012.077
2017-03-21T21:30:28.018Z,1012.096
2017-03-21T21:33:33.546Z,1012.136
2017-03-21T21:36:37.536Z,1012.144
2017-03-21T21:39:41.887Z,1012.156
2017-03-21T21:42:46.124Z,1012.206
2017-03-21T21:45:44.592Z,1012.277
2017-03-21T21:48:55.844Z,1012.291
2017-03-21T21:52:00.390Z,1012.360
2017-03-21T21:55:04.791Z,1012.427
2017-03-21T21:58:09.424Z,1012.404
2017-03-21T22:01:07.788Z,1012.471
2017-03-21T22:04:18.952Z,1012.504
2017-03-21T22:07:16.956Z,1012.509
2017-03-21T22:10:22.250Z,1012.513
2017-03-21T22:13:32.970Z,1012.485
2017-03-21T22:19:42.496Z,1012.571
2017-03-21T22:22:46.612Z,1012.626
2017-03-21T22:25:51.085Z,1012.597
2017-03-21T22:35:05.948Z,1012.803
2017-03-21T22:38:10.098Z,1012.790
2017-03-21T22:41:14.403Z,1012.830
2017-03-21T22:44:18.574Z,1012.886
2017-03-21T22:47:23.092Z,1012.873
2017-03-21T22:50:21.455Z,1012.896
2017-03-21T22:53:32.119Z,1012.938
2017-03-21T22:56:36.274Z,1012.985
2017-03-21T22:59:41.860Z,1013.004
2017-03-21T23:05:51.531Z,1013.089
2017-03-21T23:08:56.921Z,1013.139
2017-03-21T23:12:01.239Z,1013.149
2017-03-21T23:15:05.527Z,1013.215
2017-03-21T23:18:09.176Z,1013.241
2017-03-21T23:21:13.311Z,1013.292
2017-03-21T23:24:17.805Z,1013.291
2017-03-21T23:30:27.012Z,1013.315
2017-03-21T23:33:31.088Z,1013.343
2017-03-21T23:36:35.307Z,1013.404
2017-03-21T23:39:40.410Z,1013.458
2017-03-21T23:42:44.957Z,1013.492
2017-03-21T23:45:48.868Z,1013.510
2017-03-21T23:48:54.136Z,1013.535
2017-03-21T23:51:59.377Z,1013.561
2017-03-21T23:55:03.667Z,1013.561
2017-03-21T23:58:08.077Z,1013.607
